Time;durP1;ratioP1;P1;durP2;ratioP2;P2;SDS_P1;SDS_P2;PMS_P1;PMS_P2;Temp;Humidity;BMP_temperature;BMP_pressure;BME280_temperature;BME280_humidity;BME280_pressure;Samples;Min_cycle;Max_cycle;Signal;HPM_P1;HPM_P2
2023/06/18 00:02:24;;;;;;;6.88;5.95;;;;;;;17.44;43.76;96502.94;4955849;29;20051;-76
2023/06/18 00:04:53;;;;;;;8.63;6.50;;;;;;;17.39;43.88;96505.47;4955800;29;20047;-77
2023/06/18 00:07:22;;;;;;;6.63;5.90;;;;;;;17.37;43.82;96506.72;4956157;29;20070;-77
2023/06/18 00:09:49;;;;;;;6.55;5.82;;;;;;;17.37;43.82;96509.34;4956433;29;20515;-76
2023/06/18 00:12:17;;;;;;;7.38;5.95;;;;;;;17.38;43.70;96501.22;4956847;29;20141;-77
2023/06/18 00:14:44;;;;;;;6.20;5.53;;;;;;;17.37;43.81;96509.34;4962478;29;20063;-77
2023/06/18 00:17:12;;;;;;;6.80;5.90;;;;;;;17.35;43.85;96506.94;4971898;29;20051;-77
2023/06/18 00:19:40;;;;;;;8.50;6.00;;;;;;;17.32;43.93;96506.56;4971778;29;20075;-77
2023/06/18 00:22:09;;;;;;;6.85;5.43;;;;;;;17.27;43.92;96516.00;4971642;29;20055;-77
2023/06/18 00:24:39;;;;;;;7.43;5.85;;;;;;;17.25;44.09;96512.78;4970422;29;20051;-77
2023/06/18 00:27:07;;;;;;;7.80;6.25;;;;;;;17.23;44.38;96514.84;4973284;29;20062;-77
2023/06/18 00:29:35;;;;;;;8.88;6.10;;;;;;;17.24;44.35;96510.34;4965938;29;20052;-77
2023/06/18 00:32:03;;;;;;;6.70;5.95;;;;;;;17.26;44.39;96517.00;4956368;29;20105;-77
2023/06/18 00:34:32;;;;;;;6.25;5.65;;;;;;;17.28;44.31;96506.25;4956381;29;20118;-77
2023/06/18 00:37:00;;;;;;;6.45;5.80;;;;;;;17.32;44.23;96511.84;4955789;29;20109;-77
2023/06/18 00:39:28;;;;;;;8.27;6.03;;;;;;;17.27;44.22;96508.09;4955638;29;20043;-77
2023/06/18 00:41:57;;;;;;;8.70;6.32;;;;;;;17.22;44.65;96504.50;4955977;29;20082;-77
2023/06/18 00:44:24;;;;;;;7.57;6.57;;;;;;;17.19;44.71;96497.06;4955967;29;20086;-77
2023/06/18 00:46:56;;;;;;;7.35;6.28;;;;;;;17.14;44.72;96502.97;4955908;29;20051;-77
2023/06/18 00:49:23;;;;;;;8.73;6.30;;;;;;;17.06;44.89;96498.84;4955991;29;20058;-77
2023/06/18 00:51:52;;;;;;;7.03;6.00;;;;;;;17.02;45.06;96499.53;4955565;28;20479;-77
2023/06/18 00:54:21;;;;;;;9.73;6.32;;;;;;;16.98;45.16;96501.00;4955397;29;20058;-79
2023/06/18 00:56:51;;;;;;;8.32;6.00;;;;;;;16.92;45.21;96494.78;4955348;29;20047;-77
2023/06/18 00:59:23;;;;;;;6.65;5.55;;;;;;;16.86;45.25;96498.34;4955785;29;20051;-77
2023/06/18 01:01:52;;;;;;;7.32;6.18;;;;;;;16.80;45.39;96494.75;4955133;29;20087;-77
2023/06/18 01:04:21;;;;;;;6.55;5.80;;;;;;;16.76;45.63;96496.19;4955376;29;20051;-77
2023/06/18 01:06:52;;;;;;;8.07;6.25;;;;;;;16.72;45.45;96491.59;4956132;29;20095;-78
2023/06/18 01:09:21;;;;;;;6.10;5.60;;;;;;;16.71;45.67;96498.72;4966068;29;20058;-77
2023/06/18 01:11:51;;;;;;;7.15;6.40;;;;;;;16.71;45.66;96493.44;4963575;29;20593;-77
2023/06/18 01:14:21;;;;;;;6.82;5.90;;;;;;;16.67;46.00;96494.91;4955669;29;20055;-77
2023/06/18 01:16:51;;;;;;;9.10;6.25;;;;;;;16.62;45.86;96492.94;4955244;29;20106;-77
2023/06/18 01:19:35;;;;;;;9.70;6.47;;;;;;;16.56;46.35;96488.56;4954884;29;20051;-77
2023/06/18 01:22:11;;;;;;;7.28;5.93;;;;;;;16.52;46.47;96492.66;4954739;29;20055;-77
2023/06/18 01:24:45;;;;;;;10.05;6.53;;;;;;;16.52;46.47;96491.88;4954929;29;20463;-77
2023/06/18 01:27:16;;;;;;;6.88;5.68;;;;;;;16.50;46.40;96489.44;4954385;29;20090;-77
2023/06/18 01:29:45;;;;;;;6.47;5.78;;;;;;;16.53;46.34;96491.66;4954476;29;20051;-77
2023/06/18 01:32:13;;;;;;;8.90;6.43;;;;;;;16.56;46.35;96485.94;4954795;29;20126;-77
2023/06/18 01:34:42;;;;;;;7.00;6.30;;;;;;;16.55;46.11;96483.50;4954491;29;20091;-77
2023/06/18 01:37:18;;;;;;;7.88;6.18;;;;;;;16.51;46.19;96490.25;4954623;29;20451;-77
2023/06/18 01:39:53;;;;;;;7.43;6.15;;;;;;;16.44;46.63;96490.31;4954354;29;20051;-77
2023/06/18 01:42:24;;;;;;;7.97;6.07;;;;;;;16.42;46.73;96493.19;4954111;29;20511;-77
2023/06/18 01:44:58;;;;;;;7.75;6.95;;;;;;;16.41;46.69;96483.69;4954329;29;20055;-77
2023/06/18 01:47:29;;;;;;;7.65;6.60;;;;;;;16.41;46.78;96490.78;4954310;29;20138;-77
2023/06/18 01:50:01;;;;;;;9.48;6.72;;;;;;;16.41;46.86;96486.31;4954573;29;20098;-77
2023/06/18 01:52:30;;;;;;;;;;;;;;;16.45;46.27;96479.59;4954510;29;20059;-77
2023/06/18 01:54:59;;;;;;;7.03;5.70;;;;;;;16.47;46.31;96476.72;4954098;29;19923;-77
2023/06/18 01:57:28;;;;;;;6.80;6.10;;;;;;;16.52;46.39;96486.59;4953983;29;20047;-77
2023/06/18 01:59:57;;;;;;;8.23;6.35;;;;;;;16.54;46.46;96479.28;4954191;29;20511;-77
2023/06/18 02:02:24;;;;;;;9.02;6.15;;;;;;;16.50;46.48;96478.91;4954144;29;20055;-77
2023/06/18 02:04:52;;;;;;;8.50;5.80;;;;;;;16.45;46.61;96474.31;4955277;28;20055;-77
2023/06/18 02:07:20;;;;;;;6.68;6.03;;;;;;;16.45;46.60;96479.59;4957922;29;20142;-77
2023/06/18 02:09:47;;;;;;;6.95;6.25;;;;;;;16.44;46.55;96477.97;4957977;29;20051;-77
2023/06/18 02:12:15;;;;;;;7.63;5.93;;;;;;;16.44;46.67;96475.34;4958042;29;20507;-77
2023/06/18 02:14:42;;;;;;;7.85;7.05;;;;;;;16.44;46.57;96480.63;4958209;29;20463;-77
2023/06/18 02:17:11;;;;;;;7.22;6.03;;;;;;;16.47;46.66;96479.38;4957854;29;20478;-77
2023/06/18 02:19:39;;;;;;;6.20;5.60;;;;;;;16.50;46.66;96483.38;4958098;29;20054;-77
2023/06/18 02:22:07;;;;;;;7.45;6.07;;;;;;;16.47;46.55;96477.53;4957539;29;20055;-77
2023/06/18 02:24:35;;;;;;;7.10;6.40;;;;;;;16.40;46.64;96474.19;4957889;29;20055;-77
2023/06/18 02:27:03;;;;;;;7.00;6.30;;;;;;;16.37;46.96;96468.53;4957764;29;20055;-77
2023/06/18 02:29:30;;;;;;;8.02;6.32;;;;;;;16.34;47.09;96474.28;4957906;29;20107;-77
2023/06/18 02:31:58;;;;;;;7.53;6.20;;;;;;;16.31;47.04;96478.16;4957699;29;20130;-77
2023/06/18 02:34:27;;;;;;;6.93;5.93;;;;;;;16.30;47.17;96479.16;4957407;29;20142;-77
2023/06/18 02:36:55;;;;;;;7.40;6.65;;;;;;;16.28;47.14;96475.94;4957330;29;20089;-77
2023/06/18 02:39:23;;;;;;;8.63;7.25;;;;;;;16.27;47.21;96474.34;4957753;29;20134;-77
2023/06/18 02:41:50;;;;;;;8.35;6.90;;;;;;;16.25;47.16;96473.75;4959024;29;20044;-77
2023/06/18 02:44:19;;;;;;;8.35;6.63;;;;;;;16.20;47.32;96468.34;4957780;29;20058;-77
2023/06/18 02:46:47;;;;;;;7.55;6.82;;;;;;;16.14;47.49;96469.25;4957221;29;20051;-77
2023/06/18 02:49:15;;;;;;;7.90;6.10;;;;;;;16.07;47.52;96469.31;4957317;29;20055;-78
2023/06/18 02:51:44;;;;;;;7.13;6.32;;;;;;;15.98;47.87;96467.97;4957231;29;20071;-77
2023/06/18 02:54:11;;;;;;;9.52;6.60;;;;;;;15.91;47.76;96465.41;4957423;29;20098;-77
2023/06/18 02:56:39;;;;;;;8.05;6.80;;;;;;;15.87;47.95;96469.50;4957024;29;20051;-77
2023/06/18 02:59:06;;;;;;;9.25;6.90;;;;;;;15.84;48.08;96470.75;4957292;29;20051;-77
2023/06/18 03:01:35;;;;;;;7.80;6.68;;;;;;;15.83;48.19;96476.22;4956883;29;20051;-77
2023/06/18 03:04:04;;;;;;;7.75;6.20;;;;;;;15.83;48.24;96471.78;4956852;29;20047;-77
2023/06/18 03:06:32;;;;;;;9.48;7.03;;;;;;;15.83;48.16;96474.41;4956987;29;20086;-77
2023/06/18 03:09:02;;;;;;;8.25;6.80;;;;;;;15.80;48.45;96474.84;4957066;29;20102;-77
2023/06/18 03:11:30;;;;;;;7.50;6.45;;;;;;;15.80;48.66;96471.41;4956763;29;20537;-77
2023/06/18 03:13:57;;;;;;;6.63;5.85;;;;;;;15.80;48.49;96474.03;4956981;29;20055;-77
2023/06/18 03:16:26;;;;;;;8.15;6.80;;;;;;;15.79;48.60;96472.44;4956273;28;20574;-77
2023/06/18 03:18:54;;;;;;;6.95;6.20;;;;;;;15.78;48.65;96481.34;4956646;29;20562;-77
2023/06/18 03:21:22;;;;;;;7.30;5.70;;;;;;;15.78;48.50;96476.06;4956835;29;20108;-77
2023/06/18 03:23:49;;;;;;;8.57;6.72;;;;;;;15.75;48.52;96487.03;4956621;29;20596;-77
2023/06/18 03:26:18;;;;;;;8.90;6.47;;;;;;;15.72;48.45;96477.78;4956556;29;20054;-77
2023/06/18 03:28:46;;;;;;;7.00;6.30;;;;;;;15.73;48.69;96481.19;4956509;29;20085;-77
2023/06/18 03:31:14;;;;;;;8.30;6.47;;;;;;;15.74;48.54;96482.78;4956318;29;20570;-77
2023/06/18 03:33:42;;;;;;;8.63;6.70;;;;;;;15.73;48.47;96476.72;4969410;29;20203;-77
2023/06/18 03:36:13;;;;;;;9.15;6.28;;;;;;;15.75;48.65;96481.78;4969008;29;20114;-77
2023/06/18 03:38:41;;;;;;;7.72;6.57;;;;;;;15.75;48.80;96472.06;4969190;29;20191;-77
2023/06/18 03:41:08;;;;;;;8.55;6.80;;;;;;;15.73;48.69;96482.00;4959267;29;20044;-77
2023/06/18 03:43:37;;;;;;;7.13;6.32;;;;;;;15.74;48.86;96478.34;4957533;29;20047;-77
2023/06/18 03:46:05;;;;;;;7.82;6.13;;;;;;;15.76;48.92;96480.75;4956827;29;20176;-77
2023/06/18 03:48:33;;;;;;;8.55;7.43;;;;;;;15.76;48.89;96484.19;4956737;29;20062;-77
2023/06/18 03:51:00;;;;;;;8.95;6.38;;;;;;;15.77;48.87;96482.38;4956502;29;20106;-77
2023/06/18 03:53:28;;;;;;;7.45;6.47;;;;;;;15.77;48.92;96479.75;4956469;29;20173;-77
2023/06/18 03:55:56;;;;;;;9.65;6.60;;;;;;;15.77;48.94;96479.75;4955955;29;20438;-77
2023/06/18 03:58:23;;;;;;;7.70;6.82;;;;;;;15.77;48.91;96482.38;4963014;29;20066;-77
2023/06/18 04:00:53;;;;;;;8.13;5.90;;;;;;;15.80;49.19;96485.34;4968254;29;20052;-77
2023/06/18 04:03:21;;;;;;;7.07;6.38;;;;;;;15.84;48.78;96485.72;4960603;29;20053;-77
2023/06/18 04:05:48;;;;;;;7.65;6.85;;;;;;;15.87;48.83;96485.28;4955991;29;20137;-77
2023/06/18 04:08:16;;;;;;;7.32;6.32;;;;;;;15.94;49.07;96486.03;4956075;29;20494;-77
2023/06/18 04:10:45;;;;;;;7.38;6.65;;;;;;;15.99;48.99;96483.56;4955776;29;20142;-77
2023/06/18 04:13:14;;;;;;;10.48;5.90;;;;;;;16.02;48.87;96485.72;4956339;29;20082;-77
2023/06/18 04:15:42;;;;;;;8.82;6.38;;;;;;;16.03;48.91;96497.09;4955723;29;20503;-77
2023/06/18 04:18:11;;;;;;;9.52;6.68;;;;;;;16.02;48.91;96491.00;4955857;29;20047;-77
2023/06/18 04:20:39;;;;;;;7.68;6.65;;;;;;;16.05;49.07;96487.16;4955706;29;20055;-77
2023/06/18 04:23:07;;;;;;;7.57;6.00;;;;;;;16.05;48.87;96493.22;4955458;29;20142;-77
2023/06/18 04:25:34;;;;;;;10.30;6.10;;;;;;;16.08;48.98;96501.69;4955816;29;20043;-77
2023/06/18 04:28:02;;;;;;;7.60;6.30;;;;;;;16.08;48.83;96499.06;4954986;28;20083;-77
2023/06/18 04:30:30;;;;;;;9.18;6.25;;;;;;;16.10;49.16;96492.53;4955672;29;20051;-77
2023/06/18 04:32:57;;;;;;;8.50;6.75;;;;;;;16.13;49.04;96491.31;4955364;29;20074;-78
2023/06/18 04:35:26;;;;;;;9.23;6.93;;;;;;;16.14;48.92;96492.91;4955524;29;20443;-77
2023/06/18 04:37:54;;;;;;;9.13;6.72;;;;;;;16.19;49.00;96500.94;4954980;29;20055;-77
2023/06/18 04:40:22;;;;;;;6.95;6.25;;;;;;;16.24;48.87;96501.09;4955490;29;20125;-77
2023/06/18 04:42:50;;;;;;;6.20;5.60;;;;;;;16.33;48.83;96494.50;4955313;29;20067;-77
2023/06/18 04:45:18;;;;;;;6.18;5.57;;;;;;;16.44;48.63;96501.69;4955128;29;20055;-77
2023/06/18 04:47:46;;;;;;;6.57;5.88;;;;;;;16.54;48.42;96501.16;4954866;29;20545;-78
2023/06/18 04:50:14;;;;;;;7.65;6.60;;;;;;;16.66;48.48;96506.44;4954955;29;20081;-77
2023/06/18 04:52:43;;;;;;;7.32;6.25;;;;;;;16.71;48.25;96505.81;4955136;29;20054;-77
2023/06/18 04:55:11;;;;;;;7.00;6.30;;;;;;;16.70;48.38;96507.63;4955102;29;20058;-77
2023/06/18 04:57:39;;;;;;;8.63;6.47;;;;;;;16.70;48.33;96499.72;4954848;29;20472;-77
2023/06/18 05:00:08;;;;;;;7.50;6.70;;;;;;;16.71;48.34;96506.59;4954853;29;20054;-76
2023/06/18 05:02:36;;;;;;;8.15;6.93;;;;;;;16.71;48.58;96511.09;4947795;23;20052;-82
2023/06/18 05:05:04;;;;;;;7.72;6.45;;;;;;;16.73;48.28;96506.41;4923745;29;20088;-80
2023/06/18 05:07:32;;;;;;;8.68;7.00;;;;;;;16.75;48.25;96499.88;4924092;29;20048;-84
2023/06/18 05:10:01;;;;;;;7.15;6.22;;;;;;;16.76;48.11;96504.09;4924523;29;20108;-84
2023/06/18 05:12:29;;;;;;;8.20;5.63;;;;;;;16.81;48.43;96504.25;4923566;29;20194;-83
2023/06/18 05:14:56;;;;;;;6.68;6.07;;;;;;;16.88;48.46;96510.25;4923552;29;20052;-81
2023/06/18 05:17:24;;;;;;;7.28;6.10;;;;;;;16.93;48.42;96506.94;4923647;29;20079;-85
2023/06/18 05:19:52;;;;;;;7.35;6.22;;;;;;;16.98;48.46;96499.16;4923149;29;20138;-82
2023/06/18 05:22:19;;;;;;;6.80;6.03;;;;;;;17.01;48.32;96501.38;4923061;29;20119;-84
2023/06/18 05:24:47;;;;;;;9.77;6.38;;;;;;;17.06;48.22;96495.41;4921643;29;20080;-83
2023/06/18 05:27:16;;;;;;;10.85;6.78;;;;;;;17.11;48.63;96495.53;4922428;29;20051;-81
2023/06/18 05:29:44;;;;;;;7.60;6.63;;;;;;;17.19;48.45;96497.84;4921822;29;20056;-86
2023/06/18 05:32:11;;;;;;;7.85;6.55;;;;;;;17.26;48.55;96493.28;4922670;29;20079;-87
2023/06/18 05:34:41;;;;;;;6.82;6.18;;;;;;;17.35;48.66;96491.13;4922176;29;20056;-80
2023/06/18 05:37:09;;;;;;;6.60;6.00;;;;;;;17.45;48.95;96490.56;4922187;29;20464;-83
2023/06/18 05:39:37;;;;;;;6.30;5.70;;;;;;;17.56;48.28;96492.41;4922745;29;20048;-83
2023/06/18 05:42:05;;;;;;;6.22;5.60;;;;;;;17.69;48.24;96494.03;4921577;29;20130;-83
2023/06/18 05:44:34;;;;;;;8.95;7.20;;;;;;;17.78;48.50;96500.56;4921695;29;20536;-86
2023/06/18 05:47:03;;;;;;;8.25;7.32;;;;;;;17.88;48.33;96505.28;4921164;29;20051;-81
2023/06/18 05:49:30;;;;;;;9.80;6.53;;;;;;;17.97;47.98;96503.88;4922159;29;20464;-80
2023/06/18 05:51:58;;;;;;;6.80;6.10;;;;;;;18.07;47.79;96506.75;4921775;29;20055;-84
2023/06/18 05:54:26;;;;;;;8.52;6.97;;;;;;;18.18;48.17;96510.41;4921416;29;20146;-80
2023/06/18 05:56:53;;;;;;;9.05;7.05;;;;;;;18.29;47.51;96506.94;4920822;29;20135;-81
2023/06/18 05:59:21;;;;;;;7.30;6.47;;;;;;;18.39;47.24;96509.00;4923170;29;20048;-86
2023/06/18 06:01:50;;;;;;;6.80;6.10;;;;;;;18.49;46.73;96509.19;4923173;29;20052;-83
2023/06/18 06:04:19;;;;;;;8.18;6.05;;;;;;;18.62;46.43;96507.34;4925142;29;20158;-83
2023/06/18 06:06:47;;;;;;;10.13;5.95;;;;;;;18.72;46.32;96510.97;4924492;29;20056;-84
2023/06/18 06:09:15;;;;;;;9.55;7.20;;;;;;;18.86;46.42;96516.00;4925979;29;20052;-84
2023/06/18 06:11:43;;;;;;;7.63;6.90;;;;;;;18.96;46.37;96508.28;4922963;29;20055;-86
2023/06/18 06:14:11;;;;;;;6.75;6.05;;;;;;;19.07;46.32;96511.91;4923943;29;20172;-82
2023/06/18 06:16:40;;;;;;;7.90;6.82;;;;;;;19.18;45.65;96508.38;4923960;29;20062;-85
2023/06/18 06:19:09;;;;;;;8.13;6.50;;;;;;;19.29;45.27;96510.16;4924113;29;20055;-82
2023/06/18 06:21:37;;;;;;;7.53;5.80;;;;;;;19.41;44.60;96501.34;4925038;29;20056;-84
2023/06/18 06:24:06;;;;;;;5.97;5.35;;;;;;;19.51;44.34;96502.31;4924709;29;20580;-84
2023/06/18 06:26:33;;;;;;;6.07;5.47;;;;;;;19.62;43.88;96497.19;4923767;29;20308;-86
2023/06/18 06:29:01;;;;;;;10.70;6.03;;;;;;;19.73;43.88;96496.31;4923854;29;20052;-82
2023/06/18 06:31:29;;;;;;;6.00;5.03;;;;;;;19.86;43.49;96503.91;4924353;29;20052;-82
2023/06/18 06:33:57;;;;;;;9.32;6.35;;;;;;;19.99;43.05;96500.13;4924027;29;20072;-83
2023/06/18 06:36:26;;;;;;;5.43;4.93;;;;;;;20.13;42.65;96513.81;4920731;29;20055;-81
2023/06/18 06:38:54;;;;;;;7.68;5.32;;;;;;;20.25;41.95;96505.78;4921884;29;20060;-88
2023/06/18 06:41:22;;;;;;;6.32;5.70;;;;;;;20.37;41.66;96503.78;4923984;29;20063;-81
2023/06/18 06:43:50;;;;;;;5.68;4.68;;;;;;;20.49;41.30;96503.69;4922726;29;20425;-82
2023/06/18 06:46:17;;;;;;;5.97;4.90;;;;;;;20.60;40.83;96512.56;4923062;29;20048;-82
2023/06/18 06:48:45;;;;;;;5.43;4.90;;;;;;;20.70;40.19;96504.72;4922860;29;20491;-82
2023/06/18 06:51:13;;;;;;;6.65;5.45;;;;;;;20.83;39.21;96500.91;4924219;29;20091;-83
2023/06/18 06:53:42;;;;;;;6.97;5.78;;;;;;;20.96;38.69;96495.97;4925566;29;20504;-84
2023/06/18 06:56:11;;;;;;;5.78;4.93;;;;;;;21.08;38.39;96501.16;4937491;29;20048;-88
2023/06/18 06:58:40;;;;;;;5.28;4.78;;;;;;;21.20;37.70;96488.50;4943433;29;20032;-86
2023/06/18 07:01:07;;;;;;;6.88;5.32;;;;;;;21.35;37.62;96497.66;4943171;29;20043;-84
2023/06/18 07:03:35;;;;;;;6.63;5.35;;;;;;;21.46;37.17;96503.91;4942148;29;20056;-87
2023/06/18 07:06:06;;;;;;;5.57;5.05;;;;;;;21.54;36.91;96498.13;4931434;29;20117;-85
2023/06/18 07:08:33;;;;;;;7.00;5.47;;;;;;;21.63;37.08;96496.59;4932812;29;20048;-85
2023/06/18 07:11:02;;;;;;;5.28;4.78;;;;;;;21.74;36.87;96500.91;4934983;29;20043;-86
2023/06/18 07:13:30;;;;;;;5.15;4.65;;;;;;;21.87;36.80;96494.38;4942190;29;20072;-85
2023/06/18 07:15:58;;;;;;;5.50;5.00;;;;;;;22.00;36.04;96490.47;4941217;29;20103;-85
2023/06/18 07:18:25;;;;;;;7.30;5.00;;;;;;;22.15;35.83;96489.72;4933292;29;20052;-85
2023/06/18 07:20:53;;;;;;;7.28;5.32;;;;;;;22.27;35.50;96494.88;4932999;29;20433;-85
2023/06/18 07:23:21;;;;;;;6.18;5.38;;;;;;;22.41;35.41;96503.94;4932710;29;20052;-84
2023/06/18 07:25:48;;;;;;;5.07;4.63;;;;;;;22.55;35.25;96499.75;4932106;29;20056;-85
2023/06/18 07:28:17;;;;;;;8.35;5.07;;;;;;;22.69;35.47;96504.59;4931875;29;20052;-84
2023/06/18 07:30:45;;;;;;;6.43;5.32;;;;;;;22.84;35.21;96504.63;4930628;29;20197;-85
2023/06/18 07:33:13;;;;;;;5.63;5.03;;;;;;;22.94;34.80;96506.53;4930732;29;20108;-83
2023/06/18 07:35:40;;;;;;;5.90;5.30;;;;;;;23.04;35.11;96503.91;4930589;29;20052;-85
2023/06/18 07:38:08;;;;;;;5.82;5.13;;;;;;;23.18;34.62;96506.88;4930393;29;20047;-85
2023/06/18 07:40:38;;;;;;;6.20;5.57;;;;;;;23.31;34.57;96505.53;4929989;29;20051;-85
2023/06/18 07:43:06;;;;;;;6.97;5.38;;;;;;;23.45;34.22;96511.94;4929810;29;20048;-83
2023/06/18 07:45:35;;;;;;;6.32;4.90;;;;;;;23.58;34.26;96515.94;4929773;29;20052;-85
2023/06/18 07:48:02;;;;;;;5.95;5.32;;;;;;;23.69;34.38;96509.53;4928176;29;20532;-84
2023/06/18 07:50:30;;;;;;;6.28;5.35;;;;;;;23.80;34.08;96503.16;4928282;29;20087;-81
2023/06/18 07:52:58;;;;;;;6.00;5.15;;;;;;;23.88;33.64;96504.47;4927541;29;20062;-82
2023/06/18 07:55:26;;;;;;;5.40;4.90;;;;;;;23.99;33.02;96505.25;4927742;29;20048;-82
2023/06/18 07:57:54;;;;;;;5.22;4.72;;;;;;;24.08;32.44;96508.97;4926644;29;20420;-84
2023/06/18 08:00:21;;;;;;;5.88;5.38;;;;;;;24.18;32.03;96508.94;4926162;29;20078;-83
2023/06/18 08:02:51;;;;;;;5.85;5.20;;;;;;;24.26;32.07;96503.03;4924119;29;20139;-84
2023/06/18 08:05:19;;;;;;;5.72;4.70;;;;;;;24.32;31.95;96503.84;4925934;29;20080;-85
2023/06/18 08:07:47;;;;;;;5.47;4.65;;;;;;;24.41;30.16;96507.53;4925406;29;20429;-83
2023/06/18 08:10:15;;;;;;;5.72;5.13;;;;;;;24.52;30.16;96504.84;4925456;29;20111;-83
2023/06/18 08:12:43;;;;;;;5.05;4.22;;;;;;;24.61;29.79;96505.88;4925309;29;20567;-84
2023/06/18 08:15:11;;;;;;;6.05;4.88;;;;;;;24.72;30.25;96495.97;4925953;29;20088;-84
2023/06/18 08:17:38;;;;;;;4.93;4.35;;;;;;;24.84;30.05;96499.91;4926369;29;20100;-82
2023/06/18 08:20:09;;;;;;;7.53;5.30;;;;;;;24.97;29.22;96492.34;4925245;29;20048;-84
2023/06/18 08:22:37;;;;;;;5.25;4.55;;;;;;;25.08;28.62;96501.91;4925675;29;20123;-82
2023/06/18 08:25:06;;;;;;;5.35;4.30;;;;;;;25.16;28.20;96495.94;4924651;29;20055;-83
2023/06/18 08:27:35;;;;;;;4.97;4.40;;;;;;;25.23;27.64;96485.81;4924039;29;20056;-83
2023/06/18 08:30:03;;;;;;;5.95;4.35;;;;;;;25.32;27.87;96486.00;4924384;29;20048;-83
2023/06/18 08:32:31;;;;;;;5.25;4.68;;;;;;;25.45;27.63;96497.91;4924104;29;20060;-81
2023/06/18 08:35:00;;;;;;;5.50;4.68;;;;;;;25.54;27.22;96493.56;4923940;29;20051;-84
2023/06/18 08:37:30;;;;;;;5.30;4.68;;;;;;;25.62;26.68;96494.81;4924054;29;20139;-84
2023/06/18 08:39:57;;;;;;;5.13;4.50;;;;;;;25.70;27.08;96494.22;4924224;29;20476;-85
2023/06/18 08:42:25;;;;;;;7.50;4.47;;;;;;;25.76;26.71;96486.94;4923673;29;20477;-86
2023/06/18 08:44:54;;;;;;;6.10;4.57;;;;;;;25.78;26.65;96490.94;4923465;29;20055;-83
2023/06/18 08:47:22;;;;;;;5.22;4.72;;;;;;;25.84;26.68;96489.78;4927289;29;20048;-84
2023/06/18 08:49:51;;;;;;;7.35;5.40;;;;;;;25.95;26.70;96489.72;4937829;29;20052;-85
2023/06/18 08:52:20;;;;;;;5.90;4.78;;;;;;;26.01;26.71;96489.41;4937875;29;20084;-86
2023/06/18 08:54:54;;;;;;;5.65;4.32;;;;;;;26.08;26.27;96489.84;4933627;29;20048;-86
2023/06/18 08:57:28;;;;;;;4.72;4.30;;;;;;;26.17;26.46;96487.34;4928845;29;20052;-86
2023/06/18 08:59:59;;;;;;;4.97;4.57;;;;;;;26.26;26.34;96485.66;4927958;29;20488;-84
2023/06/18 09:02:27;;;;;;;5.30;4.45;;;;;;;26.38;26.41;96497.81;4927984;29;20044;-86
2023/06/18 09:04:55;;;;;;;5.82;5.18;;;;;;;26.43;26.52;96489.72;4927658;29;20579;-84
2023/06/18 09:07:25;;;;;;;5.38;4.88;;;;;;;26.49;26.14;96489.38;4927377;29;20056;-84
2023/06/18 09:09:54;;;;;;;5.65;4.45;;;;;;;26.58;26.03;96488.78;4927232;29;20056;-83
2023/06/18 09:12:22;;;;;;;5.60;4.25;;;;;;;26.62;25.51;96490.59;4926801;29;20501;-87
2023/06/18 09:14:49;;;;;;;6.00;4.70;;;;;;;26.67;25.67;96498.53;4926299;29;20068;-85
2023/06/18 09:17:17;;;;;;;4.78;4.30;;;;;;;26.71;25.46;96493.41;4926313;29;20048;-84
2023/06/18 09:19:47;;;;;;;5.15;4.22;;;;;;;26.77;25.31;96494.16;4926643;29;20044;-84
2023/06/18 09:22:16;;;;;;;5.18;4.68;;;;;;;26.80;25.50;96490.91;4924987;29;20104;-83
2023/06/18 09:24:45;;;;;;;5.90;4.60;;;;;;;26.88;25.33;96487.59;4925668;29;20052;-86
2023/06/18 09:27:14;;;;;;;5.50;4.47;;;;;;;26.98;25.59;96490.09;4924777;29;20056;-82
2023/06/18 09:29:42;;;;;;;5.75;4.80;;;;;;;27.04;25.47;96488.94;4925248;29;20048;-85
2023/06/18 09:32:11;;;;;;;5.75;5.18;;;;;;;27.13;25.50;96484.53;4926476;29;20086;-86
2023/06/18 09:34:40;;;;;;;5.75;5.15;;;;;;;27.24;25.49;96485.19;4925532;29;20048;-82
2023/06/18 09:37:09;;;;;;;5.57;4.72;;;;;;;27.35;25.44;96485.81;4924806;29;20457;-86
2023/06/18 09:39:38;;;;;;;5.38;4.88;;;;;;;27.43;25.09;96482.47;4925046;29;20056;-83
2023/06/18 09:42:09;;;;;;;6.72;4.72;;;;;;;27.48;24.97;96479.72;4924157;29;20504;-83
2023/06/18 09:44:38;;;;;;;5.13;4.63;;;;;;;27.56;24.35;96474.78;4923288;29;20468;-86
2023/06/18 09:47:11;;;;;;;5.00;4.50;;;;;;;27.62;24.68;96476.28;4923238;29;20052;-86
2023/06/18 09:49:39;;;;;;;5.35;4.85;;;;;;;27.73;24.89;96467.00;4923828;29;20063;-83
2023/06/18 09:52:08;;;;;;;5.60;4.57;;;;;;;27.82;24.85;96464.41;4923556;29;20055;-82
2023/06/18 09:54:40;;;;;;;6.38;4.70;;;;;;;27.90;24.44;96477.97;4923544;29;20116;-82
2023/06/18 09:57:09;;;;;;;5.80;4.88;;;;;;;27.97;24.68;96466.84;4923756;29;20103;-82
2023/06/18 09:59:39;;;;;;;5.22;4.72;;;;;;;28.00;24.54;96468.13;4922941;29;20128;-82
2023/06/18 10:02:09;;;;;;;5.50;4.85;;;;;;;28.04;24.56;96469.13;4922769;29;20528;-85
2023/06/18 10:04:37;;;;;;;5.95;4.80;;;;;;;28.11;24.32;96461.47;4921778;29;20048;-85
2023/06/18 10:07:07;;;;;;;4.97;4.53;;;;;;;28.13;24.38;96464.66;4922676;29;20056;-84
2023/06/18 10:09:37;;;;;;;5.57;5.07;;;;;;;28.15;24.53;96457.13;4922910;29;20128;-84
2023/06/18 10:12:06;;;;;;;6.85;4.50;;;;;;;28.19;23.89;96458.09;4922666;29;20064;-83
2023/06/18 10:14:35;;;;;;;5.68;5.00;;;;;;;28.24;24.34;96458.00;4922819;29;20539;-83
2023/06/18 10:17:09;;;;;;;8.77;4.95;;;;;;;28.28;24.27;96455.53;4922423;29;20056;-85
2023/06/18 10:19:43;;;;;;;5.03;4.53;;;;;;;28.28;23.83;96456.31;4922517;29;20107;-84
2023/06/18 10:22:12;;;;;;;4.93;4.47;;;;;;;28.25;24.18;96451.56;4922972;29;20056;-83
2023/06/18 10:24:43;;;;;;;5.88;4.53;;;;;;;28.26;24.13;96452.34;4922295;29;20052;-83
2023/06/18 10:27:12;;;;;;;5.18;4.68;;;;;;;28.32;24.07;96443.91;4925458;29;20483;-82
2023/06/18 10:29:43;;;;;;;5.13;4.63;;;;;;;28.40;23.58;96446.97;4925257;29;20074;-84
2023/06/18 10:32:15;;;;;;;4.87;4.47;;;;;;;28.48;23.84;96448.97;4925660;29;20185;-84
2023/06/18 10:34:46;;;;;;;5.85;4.53;;;;;;;28.51;23.38;96454.53;4925378;29;20060;-85
2023/06/18 10:37:15;;;;;;;5.95;4.28;;;;;;;28.53;23.41;96456.91;4925865;29;20056;-83
2023/06/18 10:39:43;;;;;;;4.63;4.22;;;;;;;28.55;23.32;96452.03;4926066;29;20087;-84
2023/06/18 10:42:13;;;;;;;6.20;5.03;;;;;;;28.57;24.06;96447.16;4925405;29;20112;-85
2023/06/18 10:44:53;;;;;;;6.72;5.18;;;;;;;28.62;23.75;96449.72;4925455;29;20095;-87
2023/06/18 10:47:23;;;;;;;5.40;4.80;;;;;;;28.67;23.35;96451.53;4925480;29;20052;-84
2023/06/18 10:50:11;;;;;;;5.20;4.70;;;;;;;28.69;23.72;96446.66;4925631;29;20055;-82
2023/06/18 10:52:40;;;;;;;5.25;4.72;;;;;;;28.70;23.55;96440.97;4925233;29;20079;-86
2023/06/18 10:55:09;;;;;;;5.55;4.82;;;;;;;28.73;23.60;96436.88;4925080;29;20048;-82
2023/06/18 10:57:37;;;;;;;6.35;4.97;;;;;;;28.75;23.67;96435.50;4925244;29;20056;-83
2023/06/18 11:00:19;;;;;;;6.18;5.45;;;;;;;28.81;23.44;96430.78;4924956;29;20581;-83
2023/06/18 11:02:50;;;;;;;5.50;4.95;;;;;;;28.84;23.25;96426.69;4971207;23;20525;-77
2023/06/18 11:05:42;;;;;;;7.05;4.82;;;;;;;28.87;23.12;96426.91;4956193;29;20151;-77
2023/06/18 11:08:13;;;;;;;5.20;4.68;;;;;;;28.93;23.74;96427.59;4956551;29;20111;-77
2023/06/18 11:10:42;;;;;;;5.43;4.85;;;;;;;29.01;22.96;96423.38;4956309;29;20460;-77
2023/06/18 11:13:12;;;;;;;4.60;4.20;;;;;;;29.04;22.88;96428.94;4956099;29;20098;-77
2023/06/18 11:15:53;;;;;;;5.85;5.15;;;;;;;29.11;23.16;96418.56;4955992;29;20071;-77
2023/06/18 11:18:25;;;;;;;7.35;5.20;;;;;;;29.17;22.85;96422.72;4956255;29;20051;-76
2023/06/18 11:20:54;;;;;;;5.50;4.88;;;;;;;29.21;23.12;96416.75;4955998;29;20118;-77
2023/06/18 11:23:22;;;;;;;7.13;4.65;;;;;;;29.22;22.91;96423.72;4956046;29;20496;-77
2023/06/18 11:25:50;;;;;;;7.32;5.15;;;;;;;29.23;22.42;96420.69;4955710;29;20138;-77
2023/06/18 11:28:18;;;;;;;5.05;4.65;;;;;;;29.22;22.45;96412.97;4956196;29;20051;-77
2023/06/18 11:30:52;;;;;;;6.43;5.25;;;;;;;29.21;22.32;96422.91;4956101;29;20051;-77
2023/06/18 11:33:25;;;;;;;5.10;4.63;;;;;;;29.21;22.24;96422.09;4955824;29;20051;-77
2023/06/18 11:35:54;;;;;;;6.00;5.43;;;;;;;29.23;22.87;96409.94;4955651;29;20051;-77
2023/06/18 11:38:25;;;;;;;5.47;4.72;;;;;;;29.26;22.21;96408.56;4955649;28;20054;-77
2023/06/18 11:40:54;;;;;;;7.72;4.85;;;;;;;29.27;22.58;96405.56;4955743;29;20515;-77
2023/06/18 11:43:22;;;;;;;7.18;4.82;;;;;;;29.31;22.09;96406.53;4955871;29;20102;-77